createdAt,value
2022-12-24T00:01:37.506Z,3.50
2022-12-24T00:04:04.467Z,2.90
2022-12-24T00:06:31.129Z,5.00
2022-12-24T00:08:57.943Z,3.53
2022-12-24T00:11:24.633Z,3.13
2022-12-24T00:13:51.355Z,3.60
2022-12-24T00:16:18.132Z,2.90
2022-12-24T00:18:46.618Z,3.57
2022-12-24T00:21:15.030Z,3.70
2022-12-24T00:23:41.822Z,3.17
2022-12-24T00:26:08.592Z,3.60
2022-12-24T00:28:35.349Z,3.83
2022-12-24T00:31:08.817Z,3.60
2022-12-24T00:33:35.600Z,3.10
2022-12-24T00:36:02.377Z,3.07
2022-12-24T00:38:29.203Z,3.00
2022-12-24T00:41:02.420Z,3.00
2022-12-24T00:43:29.681Z,2.50
2022-12-24T00:45:57.489Z,2.60
2022-12-24T00:48:24.416Z,2.40
2022-12-24T00:50:51.306Z,2.80
2022-12-24T00:53:18.263Z,3.00
2022-12-24T00:55:45.053Z,2.20
2022-12-24T00:58:11.827Z,2.17
2022-12-24T01:00:38.688Z,2.57
2022-12-24T01:03:05.636Z,2.93
2022-12-24T01:05:32.446Z,2.63
2022-12-24T01:07:59.227Z,2.77
2022-12-24T01:10:26.009Z,3.27
2022-12-24T01:12:52.812Z,2.83
2022-12-24T01:15:19.598Z,2.50
2022-12-24T01:17:46.387Z,2.33
2022-12-24T01:20:15.224Z,2.67
2022-12-24T01:22:42.001Z,2.50
2022-12-24T01:25:09.097Z,2.57
2022-12-24T01:27:35.921Z,2.50
2022-12-24T01:30:02.790Z,2.57
2022-12-24T01:32:30.924Z,2.40
2022-12-24T01:34:57.781Z,2.33
2022-12-24T01:37:24.540Z,3.30
2022-12-24T01:39:51.308Z,2.73
2022-12-24T01:42:41.244Z,3.03
2022-12-24T01:45:45.703Z,3.63
2022-12-24T01:48:47.129Z,3.10
2022-12-24T01:51:13.873Z,3.37
2022-12-24T01:53:40.831Z,3.07
2022-12-24T01:56:07.637Z,3.85
2022-12-24T01:58:34.878Z,3.80
2022-12-24T02:01:01.688Z,3.40
2022-12-24T02:03:28.573Z,3.57
2022-12-24T02:05:56.706Z,3.50
2022-12-24T02:08:23.431Z,2.70
2022-12-24T02:10:50.242Z,2.50
2022-12-24T02:13:19.259Z,2.97
2022-12-24T02:16:19.664Z,2.60
2022-12-24T02:19:10.934Z,3.50
2022-12-24T02:21:40.223Z,3.53
2022-12-24T02:24:30.495Z,2.60
2022-12-24T02:27:15.935Z,3.33
2022-12-24T02:30:11.302Z,3.50
2022-12-24T02:33:04.708Z,3.08
2022-12-24T02:35:36.901Z,2.60
2022-12-24T02:38:12.118Z,2.47
2022-12-24T02:40:41.405Z,2.97
2022-12-24T02:43:13.954Z,2.90
2022-12-24T02:45:40.903Z,2.60
2022-12-24T02:48:07.639Z,2.50
2022-12-24T02:50:34.396Z,2.63
2022-12-24T02:53:01.196Z,2.90
2022-12-24T02:55:40.039Z,2.57
2022-12-24T02:58:34.970Z,2.80
2022-12-24T03:01:25.049Z,3.40
2022-12-24T03:03:59.571Z,3.27
2022-12-24T03:06:48.415Z,3.43
2022-12-24T03:09:19.760Z,4.70
2022-12-24T03:11:55.782Z,3.83
2022-12-24T03:14:23.207Z,2.70
2022-12-24T03:16:50.157Z,3.70
2022-12-24T03:19:17.014Z,2.70
2022-12-24T03:21:44.534Z,2.57
2022-12-24T03:24:11.359Z,2.67
2022-12-24T03:26:38.193Z,2.70
2022-12-24T03:29:07.976Z,2.60
2022-12-24T03:31:49.540Z,2.80
2022-12-24T03:34:16.532Z,2.38
2022-12-24T03:36:43.318Z,2.60
2022-12-24T03:39:10.144Z,2.22
2022-12-24T03:41:37.928Z,2.00
2022-12-24T03:44:04.727Z,1.90
2022-12-24T03:46:31.510Z,2.50
2022-12-24T03:48:58.304Z,1.75
2022-12-24T03:51:25.262Z,2.50
2022-12-24T03:53:57.825Z,2.30
2022-12-24T03:56:24.868Z,2.53
2022-12-24T03:58:51.678Z,2.33
2022-12-24T04:01:18.673Z,1.97
2022-12-24T04:03:45.542Z,2.20
2022-12-24T04:06:17.701Z,2.20
2022-12-24T04:08:44.473Z,2.20
2022-12-24T04:11:13.163Z,2.03
2022-12-24T04:13:39.879Z,2.03
2022-12-24T04:16:08.655Z,2.60
2022-12-24T04:18:35.838Z,2.10
2022-12-24T04:21:02.608Z,2.00
2022-12-24T04:23:33.348Z,2.05
2022-12-24T04:26:04.146Z,2.90
2022-12-24T04:28:31.007Z,2.03
2022-12-24T04:31:01.681Z,1.60
2022-12-24T04:33:28.751Z,1.93
2022-12-24T04:35:59.285Z,1.88
2022-12-24T04:38:26.220Z,1.80
2022-12-24T04:41:08.080Z,1.67
2022-12-24T04:43:34.905Z,1.80
2022-12-24T04:46:06.458Z,2.00
2022-12-24T04:48:33.253Z,1.30
2022-12-24T04:51:02.842Z,2.05
2022-12-24T04:53:30.024Z,1.90
2022-12-24T04:55:56.909Z,2.20
2022-12-24T04:58:23.751Z,2.00
2022-12-24T05:00:50.568Z,2.47
2022-12-24T05:03:17.522Z,2.17
2022-12-24T05:05:44.338Z,1.93
2022-12-24T05:08:11.150Z,2.00
2022-12-24T05:10:38.001Z,2.10
2022-12-24T05:13:04.744Z,2.85
2022-12-24T05:15:31.516Z,2.40
2022-12-24T05:17:58.370Z,2.07
2022-12-24T05:20:25.153Z,2.40
2022-12-24T05:23:10.478Z,2.27
2022-12-24T05:25:57.570Z,3.20
2022-12-24T05:28:24.931Z,2.10
2022-12-24T05:30:51.789Z,2.10
2022-12-24T05:33:18.637Z,2.77
2022-12-24T05:35:45.399Z,2.20
2022-12-24T05:38:12.222Z,2.73
2022-12-24T05:40:39.044Z,3.40
2022-12-24T05:43:05.742Z,2.27
2022-12-24T05:45:32.927Z,2.50
2022-12-24T05:48:00.388Z,3.03
2022-12-24T05:50:27.195Z,3.47
2022-12-24T05:52:54.003Z,3.40
2022-12-24T05:55:20.714Z,2.57
2022-12-24T05:57:47.544Z,2.93
2022-12-24T06:00:14.633Z,2.70
2022-12-24T06:02:41.484Z,3.00
2022-12-24T06:05:08.791Z,2.97
2022-12-24T06:07:35.654Z,3.03
2022-12-24T06:10:02.431Z,2.70
2022-12-24T06:12:29.317Z,2.93
2022-12-24T06:14:56.072Z,2.33
2022-12-24T06:17:22.835Z,2.50
2022-12-24T06:19:49.657Z,3.03
2022-12-24T06:22:16.464Z,2.67
2022-12-24T06:24:43.208Z,2.60
2022-12-24T06:27:09.933Z,2.25
2022-12-24T06:29:36.659Z,2.93
2022-12-24T06:32:03.471Z,2.57
2022-12-24T06:34:30.207Z,2.60
2022-12-24T06:36:56.935Z,2.45
2022-12-24T06:39:23.670Z,3.05
2022-12-24T06:41:50.390Z,2.67
2022-12-24T06:44:17.207Z,2.83
2022-12-24T06:46:44.100Z,2.90
2022-12-24T06:49:10.953Z,2.43
2022-12-24T06:51:37.713Z,3.00
2022-12-24T06:54:09.608Z,2.80
2022-12-24T06:56:36.345Z,3.00
2022-12-24T06:59:05.508Z,2.60
2022-12-24T07:01:32.639Z,3.77
2022-12-24T07:03:59.532Z,3.63
2022-12-24T07:06:28.240Z,3.47
2022-12-24T07:08:55.260Z,3.70
2022-12-24T07:11:23.190Z,3.80
2022-12-24T07:13:49.990Z,5.95
2022-12-24T07:16:17.688Z,4.50
2022-12-24T07:18:44.664Z,4.90
2022-12-24T07:21:11.427Z,5.77
2022-12-24T07:23:38.252Z,5.40
2022-12-24T07:26:05.630Z,5.03
2022-12-24T07:28:32.496Z,5.43
2022-12-24T07:31:04.564Z,5.90
2022-12-24T07:33:31.408Z,4.30
2022-12-24T07:36:00.057Z,5.63
2022-12-24T07:38:26.916Z,5.33
2022-12-24T07:40:58.870Z,5.15
2022-12-24T07:43:26.441Z,4.47
2022-12-24T07:45:59.374Z,4.37
2022-12-24T07:48:26.648Z,4.45
2022-12-24T07:50:54.542Z,4.63
2022-12-24T07:53:27.471Z,5.33
2022-12-24T07:55:54.232Z,4.73
2022-12-24T07:58:21.543Z,4.27
2022-12-24T08:00:48.369Z,2.87
2022-12-24T08:03:21.956Z,4.17
2022-12-24T08:05:48.843Z,5.03
2022-12-24T08:08:15.611Z,10.00
2022-12-24T08:10:45.028Z,9.70
2022-12-24T08:13:12.113Z,10.53
2022-12-24T08:15:38.843Z,6.80
2022-12-24T08:18:05.594Z,6.13
2022-12-24T08:20:32.624Z,7.20
2022-12-24T08:22:59.396Z,4.47
2022-12-24T08:25:26.181Z,4.77
2022-12-24T08:27:52.890Z,4.33
2022-12-24T08:30:21.462Z,2.73
2022-12-24T08:32:48.661Z,3.60
2022-12-24T08:35:15.434Z,2.73
2022-12-24T08:37:42.265Z,2.73
2022-12-24T08:40:09.787Z,2.73
2022-12-24T08:42:36.603Z,2.73
2022-12-24T08:45:03.527Z,3.10
2022-12-24T08:47:30.296Z,3.37
2022-12-24T08:49:57.112Z,5.53
2022-12-24T08:52:23.806Z,4.77
2022-12-24T08:54:53.204Z,3.75
2022-12-24T08:57:23.353Z,5.47
2022-12-24T08:59:50.106Z,5.97
2022-12-24T09:02:17.301Z,4.80
2022-12-24T09:04:44.218Z,4.00
2022-12-24T09:07:11.076Z,3.30
2022-12-24T09:09:38.369Z,2.90
2022-12-24T09:12:06.395Z,2.37
2022-12-24T09:14:35.626Z,2.10
2022-12-24T09:17:02.471Z,1.80
2022-12-24T09:19:29.344Z,1.80
2022-12-24T09:21:56.098Z,2.93
2022-12-24T09:24:22.902Z,1.50
2022-12-24T09:26:57.561Z,1.57
2022-12-24T09:29:25.006Z,1.80
2022-12-24T09:31:51.917Z,1.57
2022-12-24T09:34:18.829Z,1.57
2022-12-24T09:36:46.466Z,1.43
2022-12-24T09:39:13.280Z,0.97
2022-12-24T09:41:58.149Z,1.50
2022-12-24T09:44:28.006Z,1.00
2022-12-24T09:46:54.760Z,0.90
2022-12-24T09:49:26.784Z,1.00
2022-12-24T09:52:02.132Z,0.90
2022-12-24T09:54:35.311Z,0.80
2022-12-24T09:57:13.962Z,1.07
2022-12-24T09:59:45.294Z,1.07
2022-12-24T10:02:14.325Z,1.00
2022-12-24T10:04:41.186Z,0.90
2022-12-24T10:07:28.945Z,1.00
2022-12-24T10:10:27.754Z,0.70
2022-12-24T10:13:12.667Z,0.80
2022-12-24T10:16:03.719Z,0.87
2022-12-24T10:18:47.321Z,0.60
2022-12-24T10:21:41.980Z,0.80
2022-12-24T10:24:29.332Z,0.60
2022-12-24T10:27:15.087Z,0.93
2022-12-24T10:29:48.132Z,0.50
2022-12-24T10:32:21.292Z,0.47
2022-12-24T10:35:15.965Z,0.90
2022-12-24T10:37:47.679Z,1.60
2022-12-24T10:40:25.764Z,0.80
2022-12-24T10:42:52.515Z,0.80
2022-12-24T10:45:21.715Z,0.90
2022-12-24T10:47:49.962Z,1.00
2022-12-24T10:50:33.836Z,0.63
2022-12-24T10:53:23.891Z,0.60
2022-12-24T10:55:51.035Z,0.60
2022-12-24T10:58:19.236Z,0.63
2022-12-24T11:00:52.335Z,0.77
2022-12-24T11:03:19.138Z,0.60
2022-12-24T11:05:46.004Z,0.60
2022-12-24T11:08:12.731Z,0.60
2022-12-24T11:10:54.319Z,0.70
2022-12-24T11:13:38.822Z,0.60
2022-12-24T11:16:21.502Z,0.63
2022-12-24T11:18:52.989Z,0.60
2022-12-24T11:21:24.967Z,0.60
2022-12-24T11:23:53.536Z,0.47
2022-12-24T11:26:27.913Z,0.90
2022-12-24T11:29:03.780Z,0.50
2022-12-24T11:31:32.888Z,0.80
2022-12-24T11:33:59.726Z,0.43
2022-12-24T11:36:27.626Z,1.00
2022-12-24T11:38:55.937Z,0.70
2022-12-24T11:41:22.799Z,0.40
2022-12-24T11:43:51.663Z,0.40
2022-12-24T11:46:38.835Z,0.40
2022-12-24T11:49:11.806Z,0.70
2022-12-24T11:51:39.820Z,0.60
2022-12-24T11:54:16.793Z,0.53
2022-12-24T11:56:45.705Z,0.80
2022-12-24T11:59:17.508Z,0.87
2022-12-24T12:02:25.680Z,0.70
2022-12-24T12:04:56.885Z,0.53
2022-12-24T12:07:34.266Z,0.50
2022-12-24T12:10:05.524Z,0.40
2022-12-24T12:12:38.057Z,0.70
2022-12-24T12:15:06.564Z,0.43
2022-12-24T12:17:47.543Z,0.63
2022-12-24T12:20:46.843Z,0.80
2022-12-24T12:23:31.408Z,0.73
2022-12-24T12:26:07.237Z,0.60
2022-12-24T12:28:54.519Z,0.70
2022-12-24T12:31:23.067Z,0.80
2022-12-24T12:34:21.696Z,0.73
2022-12-24T12:37:14.636Z,0.70
2022-12-24T12:39:41.875Z,0.90
2022-12-24T12:42:15.700Z,0.70
2022-12-24T12:45:12.610Z,0.83
2022-12-24T12:48:01.239Z,0.80
2022-12-24T12:50:34.934Z,0.90
2022-12-24T12:53:31.998Z,0.90
2022-12-24T12:56:30.418Z,1.10
2022-12-24T12:59:00.212Z,1.27
2022-12-24T13:01:33.259Z,0.80
2022-12-24T13:04:28.994Z,0.67
2022-12-24T13:07:24.157Z,0.60
2022-12-24T13:09:50.828Z,1.13
2022-12-24T13:12:36.139Z,0.70
2022-12-24T13:15:15.046Z,0.80
2022-12-24T13:17:47.519Z,0.80
2022-12-24T13:20:17.806Z,0.73
2022-12-24T13:23:23.805Z,1.53
2022-12-24T13:25:51.730Z,0.77
2022-12-24T13:28:24.308Z,0.90
2022-12-24T13:31:14.201Z,1.13
2022-12-24T13:33:40.962Z,2.17
2022-12-24T13:36:26.890Z,2.40
2022-12-24T13:39:00.080Z,2.20
2022-12-24T13:41:41.336Z,2.67
2022-12-24T13:44:13.473Z,2.50
2022-12-24T13:46:50.220Z,3.23
2022-12-24T13:49:19.657Z,2.73
2022-12-24T13:51:46.455Z,2.67
2022-12-24T13:54:13.918Z,1.57
2022-12-24T13:56:40.676Z,1.60
2022-12-24T13:59:39.524Z,1.63
2022-12-24T14:02:06.409Z,1.60
2022-12-24T14:04:35.556Z,2.03
2022-12-24T14:07:03.484Z,1.90
2022-12-24T14:09:30.654Z,1.00
2022-12-24T14:12:03.069Z,1.37
2022-12-24T14:14:30.860Z,1.20
2022-12-24T14:16:58.751Z,1.40
2022-12-24T14:19:28.928Z,0.80
2022-12-24T14:22:19.978Z,0.97
2022-12-24T14:24:58.734Z,0.83
2022-12-24T14:27:43.831Z,0.93
2022-12-24T14:30:26.349Z,0.90
2022-12-24T14:32:53.219Z,3.17
2022-12-24T14:35:28.691Z,1.00
2022-12-24T14:38:04.464Z,1.33
2022-12-24T14:40:32.866Z,1.10
2022-12-24T14:43:25.937Z,1.70
2022-12-24T14:46:28.756Z,1.60
2022-12-24T14:48:57.805Z,2.00
2022-12-24T14:51:35.978Z,3.67
2022-12-24T14:54:26.760Z,4.00
2022-12-24T14:57:23.257Z,4.67
2022-12-24T14:59:56.250Z,4.40
2022-12-24T15:02:45.425Z,3.40
2022-12-24T15:05:17.177Z,2.93
2022-12-24T15:07:52.545Z,3.63
2022-12-24T15:10:33.945Z,2.50
2022-12-24T15:13:39.455Z,2.60
2022-12-24T15:16:12.528Z,2.40
2022-12-24T15:18:50.002Z,3.67
2022-12-24T15:21:37.749Z,2.70
2022-12-24T15:24:04.761Z,3.37
2022-12-24T15:26:34.963Z,2.17
2022-12-24T15:29:03.535Z,2.60
2022-12-24T15:31:31.088Z,2.83
2022-12-24T15:33:59.562Z,2.00
2022-12-24T15:36:34.660Z,2.20
2022-12-24T15:39:06.436Z,2.80
2022-12-24T15:42:03.260Z,2.53
2022-12-24T15:44:36.976Z,2.53
2022-12-24T15:47:05.529Z,2.17
2022-12-24T15:49:32.810Z,1.70
2022-12-24T15:52:07.448Z,2.20
2022-12-24T15:54:34.271Z,1.70
2022-12-24T15:57:01.013Z,2.50
2022-12-24T15:59:28.917Z,1.87
2022-12-24T16:01:55.898Z,1.47
2022-12-24T16:04:27.417Z,1.00
2022-12-24T16:07:08.037Z,1.88
2022-12-24T16:09:45.637Z,2.23
2022-12-24T16:12:23.723Z,1.67
2022-12-24T16:15:15.405Z,1.60
2022-12-24T16:17:44.550Z,2.30
2022-12-24T16:20:18.202Z,1.90
2022-12-24T16:22:46.459Z,1.50
2022-12-24T16:25:23.012Z,1.90
2022-12-24T16:27:53.017Z,1.77
2022-12-24T16:30:20.187Z,1.67
2022-12-24T16:32:47.787Z,1.63
2022-12-24T16:35:33.452Z,1.93
2022-12-24T16:38:00.206Z,2.30
2022-12-24T16:40:28.238Z,2.20
2022-12-24T16:43:34.269Z,2.23
2022-12-24T16:46:05.193Z,2.80
2022-12-24T16:48:36.205Z,2.73
2022-12-24T16:51:02.987Z,2.43
2022-12-24T16:53:29.765Z,2.80
2022-12-24T16:55:56.551Z,3.33
2022-12-24T16:58:23.316Z,3.20
2022-12-24T17:00:50.223Z,3.10
2022-12-24T17:03:17.130Z,3.40
2022-12-24T17:05:44.276Z,3.70
2022-12-24T17:08:11.118Z,4.50
2022-12-24T17:10:37.908Z,4.30
2022-12-24T17:13:04.740Z,4.33
2022-12-24T17:15:31.633Z,4.60
2022-12-24T17:17:58.499Z,3.70
2022-12-24T17:20:27.722Z,4.50
2022-12-24T17:22:54.644Z,3.33
2022-12-24T17:25:21.554Z,3.40
2022-12-24T17:27:48.377Z,3.30
2022-12-24T17:30:16.255Z,2.90
2022-12-24T17:32:43.146Z,3.60
2022-12-24T17:35:10.076Z,3.13
2022-12-24T17:37:36.895Z,3.13
2022-12-24T17:40:04.076Z,3.37
2022-12-24T17:42:30.807Z,3.33
2022-12-24T17:44:57.500Z,3.67
2022-12-24T17:47:24.236Z,4.57
2022-12-24T17:49:51.031Z,5.10
2022-12-24T17:52:17.837Z,3.77
2022-12-24T17:54:44.646Z,4.13
2022-12-24T17:57:11.636Z,4.40
2022-12-24T17:59:38.382Z,5.67
2022-12-24T18:02:05.200Z,3.83
2022-12-24T18:04:32.019Z,5.00
2022-12-24T18:07:02.786Z,4.87
2022-12-24T18:09:30.231Z,6.07
2022-12-24T18:11:56.989Z,5.67
2022-12-24T18:14:23.969Z,5.53
2022-12-24T18:16:50.828Z,5.97
2022-12-24T18:19:17.789Z,5.77
2022-12-24T18:21:44.695Z,5.30
2022-12-24T18:24:12.783Z,5.47
2022-12-24T18:26:39.542Z,5.80
2022-12-24T18:29:08.804Z,5.57
2022-12-24T18:31:35.715Z,6.10
2022-12-24T18:34:04.378Z,4.97
2022-12-24T18:36:31.202Z,4.13
2022-12-24T18:38:58.004Z,4.60
2022-12-24T18:41:27.192Z,4.40
2022-12-24T18:43:54.126Z,4.80
2022-12-24T18:46:25.727Z,4.57
2022-12-24T18:48:53.121Z,4.70
2022-12-24T18:51:22.249Z,4.37
2022-12-24T18:53:49.483Z,4.83
2022-12-24T18:56:18.415Z,4.37
2022-12-24T18:58:45.203Z,4.20
2022-12-24T19:01:26.549Z,5.60
2022-12-24T19:03:53.443Z,7.37
2022-12-24T19:06:20.512Z,7.00
2022-12-24T19:09:02.865Z,7.73
2022-12-24T19:11:31.091Z,8.40
2022-12-24T19:14:00.507Z,6.50
2022-12-24T19:16:27.890Z,6.90
2022-12-24T19:18:54.944Z,5.07
2022-12-24T19:21:21.774Z,7.00
2022-12-24T19:23:48.783Z,5.87
2022-12-24T19:26:16.212Z,5.27
2022-12-24T19:28:43.075Z,6.57
2022-12-24T19:31:14.627Z,6.90
2022-12-24T19:33:43.836Z,5.10
2022-12-24T19:36:13.296Z,5.73
2022-12-24T19:38:40.130Z,5.27
2022-12-24T19:41:12.599Z,5.43
2022-12-24T19:43:41.351Z,5.00
2022-12-24T19:46:12.440Z,4.10
2022-12-24T19:48:41.287Z,6.60
2022-12-24T19:51:10.120Z,6.07
2022-12-24T19:53:37.004Z,5.33
2022-12-24T19:56:04.163Z,5.83
2022-12-24T19:58:32.724Z,6.20
2022-12-24T20:01:12.722Z,8.43
2022-12-24T20:03:41.411Z,8.33
2022-12-24T20:06:08.697Z,7.60
2022-12-24T20:08:36.281Z,9.40
2022-12-24T20:11:11.208Z,6.80
2022-12-24T20:13:38.405Z,6.67
2022-12-24T20:16:06.318Z,6.63
2022-12-24T20:18:33.221Z,5.27
2022-12-24T20:21:01.100Z,6.13
2022-12-24T20:23:27.858Z,5.73
2022-12-24T20:26:01.736Z,4.80
2022-12-24T20:28:29.090Z,6.80
2022-12-24T20:30:55.856Z,6.13
2022-12-24T20:33:22.618Z,8.10
2022-12-24T20:35:49.370Z,7.30
2022-12-24T20:38:16.225Z,7.73
2022-12-24T20:40:44.410Z,7.80
2022-12-24T20:43:11.702Z,6.13
2022-12-24T20:45:38.598Z,8.07
2022-12-24T20:48:06.347Z,6.87
2022-12-24T20:50:34.410Z,6.07
2022-12-24T20:53:01.164Z,5.63
2022-12-24T20:55:27.898Z,6.90
2022-12-24T20:57:55.689Z,6.73
2022-12-24T21:00:22.777Z,5.97
2022-12-24T21:02:49.920Z,7.60
2022-12-24T21:05:16.865Z,5.97
2022-12-24T21:07:43.987Z,6.03
2022-12-24T21:10:14.415Z,6.37
2022-12-24T21:12:51.889Z,5.00
2022-12-24T21:15:24.135Z,5.25
2022-12-24T21:17:50.907Z,4.23
2022-12-24T21:20:17.863Z,6.23
2022-12-24T21:22:44.764Z,5.60
2022-12-24T21:25:12.351Z,4.60
2022-12-24T21:27:39.294Z,4.00
2022-12-24T21:30:08.225Z,4.80
2022-12-24T21:32:35.763Z,4.00
2022-12-24T21:35:02.805Z,4.30
2022-12-24T21:37:29.598Z,4.23
2022-12-24T21:39:56.439Z,4.13
2022-12-24T21:42:23.240Z,3.43
2022-12-24T21:44:50.101Z,2.80
2022-12-24T21:47:16.836Z,3.00
2022-12-24T21:50:01.937Z,2.17
2022-12-24T21:52:28.727Z,3.37
2022-12-24T21:54:55.392Z,2.10
2022-12-24T21:57:40.374Z,2.03
2022-12-24T22:00:23.121Z,1.93
2022-12-24T22:02:51.471Z,1.80
2022-12-24T22:05:18.688Z,2.40
2022-12-24T22:08:04.559Z,1.80
2022-12-24T22:10:49.677Z,2.70
2022-12-24T22:13:16.581Z,3.10
2022-12-24T22:15:47.932Z,3.43
2022-12-24T22:18:15.989Z,5.17
2022-12-24T22:20:43.255Z,4.30
2022-12-24T22:23:10.044Z,3.77
2022-12-24T22:25:36.824Z,3.33
2022-12-24T22:28:03.658Z,3.63
2022-12-24T22:30:30.675Z,5.07
2022-12-24T22:32:58.077Z,3.73
2022-12-24T22:35:24.916Z,3.43
2022-12-24T22:37:56.030Z,4.60
2022-12-24T22:40:24.594Z,4.20
2022-12-24T22:42:51.425Z,4.47
2022-12-24T22:45:22.172Z,4.50
2022-12-24T22:47:49.725Z,4.33
2022-12-24T22:50:16.764Z,4.77
2022-12-24T22:52:43.499Z,4.57
2022-12-24T22:55:10.323Z,4.70
2022-12-24T22:57:37.100Z,5.50
2022-12-24T23:00:09.009Z,3.97
2022-12-24T23:02:35.899Z,4.50
2022-12-24T23:05:02.776Z,5.23
2022-12-24T23:07:29.631Z,4.63
2022-12-24T23:09:57.150Z,5.40
2022-12-24T23:12:43.958Z,4.63
2022-12-24T23:15:11.159Z,5.00
2022-12-24T23:17:39.970Z,5.33
2022-12-24T23:20:07.405Z,4.70
2022-12-24T23:22:34.214Z,4.60
2022-12-24T23:25:00.980Z,4.67
2022-12-24T23:27:27.791Z,4.83
2022-12-24T23:29:54.653Z,3.63
2022-12-24T23:32:22.883Z,3.30
2022-12-24T23:34:49.709Z,4.10
2022-12-24T23:37:16.463Z,3.97
2022-12-24T23:39:43.245Z,3.63
2022-12-24T23:42:09.978Z,4.33
2022-12-24T23:44:36.780Z,6.77
2022-12-24T23:47:03.624Z,4.33
2022-12-24T23:49:30.491Z,4.17
2022-12-24T23:51:57.270Z,4.30
2022-12-24T23:54:24.113Z,6.60
2022-12-24T23:56:50.894Z,3.50
2022-12-24T23:59:17.687Z,4.10
